sensor_id;sensor_type;location;lat;lon;timestamp;P1;durP1;ratioP1;P2;durP2;ratioP2
58260;SDS011;44058;52.898;6.502;2023-07-09T00:01:37;9.05;;;6.50;;
58260;SDS011;44058;52.898;6.502;2023-07-09T00:04:03;8.02;;;6.65;;
58260;SDS011;44058;52.898;6.502;2023-07-09T00:06:29;7.65;;;6.80;;
58260;SDS011;44058;52.898;6.502;2023-07-09T00:08:56;11.43;;;6.68;;
58260;SDS011;44058;52.898;6.502;2023-07-09T00:11:22;8.07;;;6.25;;
58260;SDS011;44058;52.898;6.502;2023-07-09T00:13:48;8.13;;;6.43;;
58260;SDS011;44058;52.898;6.502;2023-07-09T00:16:21;7.75;;;6.85;;
58260;SDS011;44058;52.898;6.502;2023-07-09T00:18:48;9.15;;;7.05;;
58260;SDS011;44058;52.898;6.502;2023-07-09T00:21:18;8.07;;;5.95;;
58260;SDS011;44058;52.898;6.502;2023-07-09T00:23:45;7.55;;;6.75;;
58260;SDS011;44058;52.898;6.502;2023-07-09T00:26:14;8.65;;;6.93;;
58260;SDS011;44058;52.898;6.502;2023-07-09T00:28:43;10.63;;;6.80;;
58260;SDS011;44058;52.898;6.502;2023-07-09T00:31:13;8.57;;;7.10;;
58260;SDS011;44058;52.898;6.502;2023-07-09T00:33:40;9.45;;;7.50;;
58260;SDS011;44058;52.898;6.502;2023-07-09T00:36:48;8.98;;;7.10;;
58260;SDS011;44058;52.898;6.502;2023-07-09T00:38:56;8.55;;;6.93;;
58260;SDS011;44058;52.898;6.502;2023-07-09T00:41:24;11.35;;;7.80;;
58260;SDS011;44058;52.898;6.502;2023-07-09T00:43:51;7.90;;;6.50;;
58260;SDS011;44058;52.898;6.502;2023-07-09T00:48:54;8.52;;;6.75;;
58260;SDS011;44058;52.898;6.502;2023-07-09T00:51:25;8.10;;;6.30;;
58260;SDS011;44058;52.898;6.502;2023-07-09T00:53:54;6.57;;;5.85;;
58260;SDS011;44058;52.898;6.502;2023-07-09T00:56:25;9.13;;;6.35;;
58260;SDS011;44058;52.898;6.502;2023-07-09T00:58:53;7.20;;;6.50;;
58260;SDS011;44058;52.898;6.502;2023-07-09T01:01:21;8.77;;;7.23;;
58260;SDS011;44058;52.898;6.502;2023-07-09T01:03:51;8.15;;;6.95;;
58260;SDS011;44058;52.898;6.502;2023-07-09T01:06:19;12.13;;;7.93;;
58260;SDS011;44058;52.898;6.502;2023-07-09T01:08:46;11.02;;;7.43;;
58260;SDS011;44058;52.898;6.502;2023-07-09T01:11:19;7.95;;;6.43;;
58260;SDS011;44058;52.898;6.502;2023-07-09T01:13:49;9.25;;;6.72;;
58260;SDS011;44058;52.898;6.502;2023-07-09T01:16:16;9.48;;;6.43;;
58260;SDS011;44058;52.898;6.502;2023-07-09T01:18:42;10.40;;;7.95;;
58260;SDS011;44058;52.898;6.502;2023-07-09T01:21:09;9.40;;;7.10;;
58260;SDS011;44058;52.898;6.502;2023-07-09T01:23:47;7.55;;;6.78;;
58260;SDS011;44058;52.898;6.502;2023-07-09T01:26:14;7.75;;;6.70;;
58260;SDS011;44058;52.898;6.502;2023-07-09T01:28:41;7.60;;;6.68;;
58260;SDS011;44058;52.898;6.502;2023-07-09T01:31:09;8.07;;;6.80;;
58260;SDS011;44058;52.898;6.502;2023-07-09T01:33:35;9.35;;;7.03;;
58260;SDS011;44058;52.898;6.502;2023-07-09T01:36:05;8.07;;;7.20;;
58260;SDS011;44058;52.898;6.502;2023-07-09T01:38:32;8.80;;;7.43;;
58260;SDS011;44058;52.898;6.502;2023-07-09T01:40:58;10.25;;;6.95;;
58260;SDS011;44058;52.898;6.502;2023-07-09T01:43:24;14.35;;;7.13;;
58260;SDS011;44058;52.898;6.502;2023-07-09T01:45:51;8.20;;;6.70;;
58260;SDS011;44058;52.898;6.502;2023-07-09T01:48:17;9.77;;;6.75;;
58260;SDS011;44058;52.898;6.502;2023-07-09T01:50:45;8.73;;;6.57;;
58260;SDS011;44058;52.898;6.502;2023-07-09T01:53:14;8.70;;;7.15;;
58260;SDS011;44058;52.898;6.502;2023-07-09T01:55:41;9.15;;;6.95;;
58260;SDS011;44058;52.898;6.502;2023-07-09T01:58:08;7.85;;;6.85;;
58260;SDS011;44058;52.898;6.502;2023-07-09T02:00:36;9.43;;;7.03;;
58260;SDS011;44058;52.898;6.502;2023-07-09T02:03:03;6.90;;;6.20;;
58260;SDS011;44058;52.898;6.502;2023-07-09T02:05:32;9.05;;;7.65;;
58260;SDS011;44058;52.898;6.502;2023-07-09T02:07:59;8.23;;;7.30;;
58260;SDS011;44058;52.898;6.502;2023-07-09T02:10:25;8.60;;;6.88;;
58260;SDS011;44058;52.898;6.502;2023-07-09T02:12:51;9.50;;;6.80;;
58260;SDS011;44058;52.898;6.502;2023-07-09T02:15:18;9.18;;;7.50;;
58260;SDS011;44058;52.898;6.502;2023-07-09T02:17:44;11.02;;;6.93;;
58260;SDS011;44058;52.898;6.502;2023-07-09T02:20:10;8.73;;;6.95;;
58260;SDS011;44058;52.898;6.502;2023-07-09T02:22:38;7.50;;;6.67;;
58260;SDS011;44058;52.898;6.502;2023-07-09T02:25:05;7.97;;;6.97;;
58260;SDS011;44058;52.898;6.502;2023-07-09T02:27:31;7.93;;;7.13;;
58260;SDS011;44058;52.898;6.502;2023-07-09T02:29:57;7.50;;;6.70;;
58260;SDS011;44058;52.898;6.502;2023-07-09T02:32:24;7.90;;;7.03;;
58260;SDS011;44058;52.898;6.502;2023-07-09T02:34:54;8.10;;;7.13;;
58260;SDS011;44058;52.898;6.502;2023-07-09T02:37:21;9.52;;;7.53;;
58260;SDS011;44058;52.898;6.502;2023-07-09T02:39:47;9.48;;;6.90;;
58260;SDS011;44058;52.898;6.502;2023-07-09T02:42:14;7.55;;;6.30;;
58260;SDS011;44058;52.898;6.502;2023-07-09T02:44:41;7.55;;;6.70;;
58260;SDS011;44058;52.898;6.502;2023-07-09T02:47:07;7.55;;;6.85;;
58260;SDS011;44058;52.898;6.502;2023-07-09T02:49:34;9.63;;;6.90;;
58260;SDS011;44058;52.898;6.502;2023-07-09T02:52:00;14.10;;;7.38;;
58260;SDS011;44058;52.898;6.502;2023-07-09T02:54:26;9.13;;;7.82;;
58260;SDS011;44058;52.898;6.502;2023-07-09T02:56:52;8.15;;;7.05;;
58260;SDS011;44058;52.898;6.502;2023-07-09T02:59:19;9.15;;;7.20;;
58260;SDS011;44058;52.898;6.502;2023-07-09T03:01:46;11.73;;;7.35;;
58260;SDS011;44058;52.898;6.502;2023-07-09T03:04:13;8.35;;;7.25;;
58260;SDS011;44058;52.898;6.502;2023-07-09T03:06:39;9.43;;;7.30;;
58260;SDS011;44058;52.898;6.502;2023-07-09T03:09:05;9.88;;;7.07;;
58260;SDS011;44058;52.898;6.502;2023-07-09T03:11:32;9.35;;;7.95;;
58260;SDS011;44058;52.898;6.502;2023-07-09T03:13:59;8.93;;;8.02;;
58260;SDS011;44058;52.898;6.502;2023-07-09T03:16:26;7.78;;;6.97;;
58260;SDS011;44058;52.898;6.502;2023-07-09T03:18:52;7.90;;;6.60;;
58260;SDS011;44058;52.898;6.502;2023-07-09T03:21:19;7.20;;;6.50;;
58260;SDS011;44058;52.898;6.502;2023-07-09T03:23:46;8.23;;;6.85;;
58260;SDS011;44058;52.898;6.502;2023-07-09T03:26:12;8.73;;;7.57;;
58260;SDS011;44058;52.898;6.502;2023-07-09T03:28:38;9.00;;;7.90;;
58260;SDS011;44058;52.898;6.502;2023-07-09T03:31:04;7.95;;;7.15;;
58260;SDS011;44058;52.898;6.502;2023-07-09T03:33:30;8.13;;;7.28;;
58260;SDS011;44058;52.898;6.502;2023-07-09T03:35:56;8.70;;;7.43;;
58260;SDS011;44058;52.898;6.502;2023-07-09T03:38:22;9.40;;;8.10;;
58260;SDS011;44058;52.898;6.502;2023-07-09T03:40:52;10.48;;;8.05;;
58260;SDS011;44058;52.898;6.502;2023-07-09T03:43:18;9.60;;;7.57;;
58260;SDS011;44058;52.898;6.502;2023-07-09T03:45:45;9.63;;;8.13;;
58260;SDS011;44058;52.898;6.502;2023-07-09T03:48:11;9.05;;;8.15;;
58260;SDS011;44058;52.898;6.502;2023-07-09T03:50:38;10.50;;;7.80;;
58260;SDS011;44058;52.898;6.502;2023-07-09T03:53:04;8.68;;;7.78;;
58260;SDS011;44058;52.898;6.502;2023-07-09T03:55:31;8.75;;;7.47;;
58260;SDS011;44058;52.898;6.502;2023-07-09T03:57:57;10.02;;;7.95;;
58260;SDS011;44058;52.898;6.502;2023-07-09T04:00:24;10.20;;;8.23;;
58260;SDS011;44058;52.898;6.502;2023-07-09T04:02:50;9.23;;;8.27;;
58260;SDS011;44058;52.898;6.502;2023-07-09T04:05:17;10.07;;;8.00;;
58260;SDS011;44058;52.898;6.502;2023-07-09T04:07:43;10.75;;;7.93;;
58260;SDS011;44058;52.898;6.502;2023-07-09T04:10:10;9.38;;;7.65;;
58260;SDS011;44058;52.898;6.502;2023-07-09T04:12:36;13.73;;;8.55;;
58260;SDS011;44058;52.898;6.502;2023-07-09T04:15:03;9.30;;;8.40;;
58260;SDS011;44058;52.898;6.502;2023-07-09T04:17:29;12.75;;;8.48;;
58260;SDS011;44058;52.898;6.502;2023-07-09T04:19:55;12.77;;;8.57;;
58260;SDS011;44058;52.898;6.502;2023-07-09T04:22:21;9.70;;;8.20;;
58260;SDS011;44058;52.898;6.502;2023-07-09T04:24:47;12.00;;;8.63;;
58260;SDS011;44058;52.898;6.502;2023-07-09T04:27:15;12.15;;;8.35;;
58260;SDS011;44058;52.898;6.502;2023-07-09T04:29:41;14.40;;;9.27;;
58260;SDS011;44058;52.898;6.502;2023-07-09T04:32:08;11.75;;;8.80;;
58260;SDS011;44058;52.898;6.502;2023-07-09T04:34:37;14.10;;;8.95;;
58260;SDS011;44058;52.898;6.502;2023-07-09T04:37:07;10.45;;;9.02;;
58260;SDS011;44058;52.898;6.502;2023-07-09T04:39:34;13.35;;;9.35;;
58260;SDS011;44058;52.898;6.502;2023-07-09T04:42:00;12.55;;;8.30;;
58260;SDS011;44058;52.898;6.502;2023-07-09T04:44:26;14.38;;;9.32;;
58260;SDS011;44058;52.898;6.502;2023-07-09T04:46:52;11.77;;;8.40;;
58260;SDS011;44058;52.898;6.502;2023-07-09T04:49:18;14.77;;;9.02;;
58260;SDS011;44058;52.898;6.502;2023-07-09T04:51:44;13.85;;;9.07;;
58260;SDS011;44058;52.898;6.502;2023-07-09T04:54:10;11.60;;;7.78;;
58260;SDS011;44058;52.898;6.502;2023-07-09T04:56:39;9.65;;;8.63;;
58260;SDS011;44058;52.898;6.502;2023-07-09T04:59:05;9.70;;;8.18;;
58260;SDS011;44058;52.898;6.502;2023-07-09T05:01:32;12.55;;;8.43;;
58260;SDS011;44058;52.898;6.502;2023-07-09T05:03:58;12.70;;;8.48;;
58260;SDS011;44058;52.898;6.502;2023-07-09T05:06:24;9.80;;;8.15;;
58260;SDS011;44058;52.898;6.502;2023-07-09T05:08:50;11.55;;;8.88;;
58260;SDS011;44058;52.898;6.502;2023-07-09T05:11:16;9.18;;;7.88;;
58260;SDS011;44058;52.898;6.502;2023-07-09T05:13:42;10.00;;;9.00;;
58260;SDS011;44058;52.898;6.502;2023-07-09T05:16:08;10.80;;;8.65;;
58260;SDS011;44058;52.898;6.502;2023-07-09T05:18:36;10.55;;;8.35;;
58260;SDS011;44058;52.898;6.502;2023-07-09T05:21:03;9.73;;;8.63;;
58260;SDS011;44058;52.898;6.502;2023-07-09T05:23:29;9.55;;;8.18;;
58260;SDS011;44058;52.898;6.502;2023-07-09T05:25:56;12.20;;;8.68;;
58260;SDS011;44058;52.898;6.502;2023-07-09T05:28:22;9.65;;;8.35;;
58260;SDS011;44058;52.898;6.502;2023-07-09T05:30:48;11.75;;;8.82;;
58260;SDS011;44058;52.898;6.502;2023-07-09T05:33:17;10.68;;;7.95;;
58260;SDS011;44058;52.898;6.502;2023-07-09T05:35:43;9.30;;;8.38;;
58260;SDS011;44058;52.898;6.502;2023-07-09T05:38:10;11.82;;;8.75;;
58260;SDS011;44058;52.898;6.502;2023-07-09T05:40:36;10.13;;;8.88;;
58260;SDS011;44058;52.898;6.502;2023-07-09T05:43:03;11.27;;;8.68;;
58260;SDS011;44058;52.898;6.502;2023-07-09T05:45:29;13.35;;;9.27;;
58260;SDS011;44058;52.898;6.502;2023-07-09T05:47:56;10.30;;;9.05;;
58260;SDS011;44058;52.898;6.502;2023-07-09T05:50:23;10.88;;;8.43;;
58260;SDS011;44058;52.898;6.502;2023-07-09T05:52:49;10.98;;;8.50;;
58260;SDS011;44058;52.898;6.502;2023-07-09T05:55:15;9.98;;;8.40;;
58260;SDS011;44058;52.898;6.502;2023-07-09T05:57:41;11.75;;;8.88;;
58260;SDS011;44058;52.898;6.502;2023-07-09T06:00:07;9.88;;;8.88;;
58260;SDS011;44058;52.898;6.502;2023-07-09T06:02:34;13.07;;;8.98;;
58260;SDS011;44058;52.898;6.502;2023-07-09T06:05:00;9.98;;;8.38;;
58260;SDS011;44058;52.898;6.502;2023-07-09T06:07:28;21.23;;;9.00;;
58260;SDS011;44058;52.898;6.502;2023-07-09T06:09:54;12.10;;;8.63;;
58260;SDS011;44058;52.898;6.502;2023-07-09T06:12:20;11.73;;;9.02;;
58260;SDS011;44058;52.898;6.502;2023-07-09T06:14:46;11.57;;;9.05;;
58260;SDS011;44058;52.898;6.502;2023-07-09T06:17:12;11.10;;;9.57;;
58260;SDS011;44058;52.898;6.502;2023-07-09T06:19:38;12.32;;;9.40;;
58260;SDS011;44058;52.898;6.502;2023-07-09T06:22:04;13.35;;;10.23;;
58260;SDS011;44058;52.898;6.502;2023-07-09T06:24:31;13.80;;;10.57;;
58260;SDS011;44058;52.898;6.502;2023-07-09T06:26:57;12.30;;;10.07;;
58260;SDS011;44058;52.898;6.502;2023-07-09T06:29:24;10.45;;;9.05;;
58260;SDS011;44058;52.898;6.502;2023-07-09T06:31:50;11.93;;;9.48;;
58260;SDS011;44058;52.898;6.502;2023-07-09T06:34:16;11.70;;;9.98;;
58260;SDS011;44058;52.898;6.502;2023-07-09T06:36:42;14.77;;;10.02;;
58260;SDS011;44058;52.898;6.502;2023-07-09T06:39:09;12.82;;;9.75;;
58260;SDS011;44058;52.898;6.502;2023-07-09T06:41:35;13.15;;;9.73;;
58260;SDS011;44058;52.898;6.502;2023-07-09T06:44:07;14.15;;;10.65;;
58260;SDS011;44058;52.898;6.502;2023-07-09T06:46:34;13.32;;;10.52;;
58260;SDS011;44058;52.898;6.502;2023-07-09T06:49:01;13.18;;;9.88;;
58260;SDS011;44058;52.898;6.502;2023-07-09T06:51:27;13.40;;;10.20;;
58260;SDS011;44058;52.898;6.502;2023-07-09T06:53:53;11.57;;;9.55;;
58260;SDS011;44058;52.898;6.502;2023-07-09T06:56:19;13.40;;;10.27;;
58260;SDS011;44058;52.898;6.502;2023-07-09T06:58:45;13.57;;;9.93;;
58260;SDS011;44058;52.898;6.502;2023-07-09T07:01:12;12.75;;;10.43;;
58260;SDS011;44058;52.898;6.502;2023-07-09T07:03:39;11.88;;;9.55;;
58260;SDS011;44058;52.898;6.502;2023-07-09T07:06:05;12.38;;;9.23;;
58260;SDS011;44058;52.898;6.502;2023-07-09T07:08:32;13.13;;;10.15;;
58260;SDS011;44058;52.898;6.502;2023-07-09T07:10:59;11.38;;;10.07;;
58260;SDS011;44058;52.898;6.502;2023-07-09T07:13:29;13.75;;;10.00;;
58260;SDS011;44058;52.898;6.502;2023-07-09T07:15:56;13.43;;;10.93;;
58260;SDS011;44058;52.898;6.502;2023-07-09T07:18:22;14.40;;;10.50;;
58260;SDS011;44058;52.898;6.502;2023-07-09T07:20:48;18.40;;;10.48;;
58260;SDS011;44058;52.898;6.502;2023-07-09T07:23:15;12.85;;;10.50;;
58260;SDS011;44058;52.898;6.502;2023-07-09T07:25:42;20.65;;;11.73;;
58260;SDS011;44058;52.898;6.502;2023-07-09T07:28:08;16.27;;;10.85;;
58260;SDS011;44058;52.898;6.502;2023-07-09T07:30:34;15.70;;;12.07;;
58260;SDS011;44058;52.898;6.502;2023-07-09T07:33:00;14.52;;;11.85;;
58260;SDS011;44058;52.898;6.502;2023-07-09T07:35:26;14.57;;;11.57;;
58260;SDS011;44058;52.898;6.502;2023-07-09T07:37:53;14.27;;;10.70;;
58260;SDS011;44058;52.898;6.502;2023-07-09T07:40:19;13.80;;;10.63;;
58260;SDS011;44058;52.898;6.502;2023-07-09T07:42:45;11.35;;;9.43;;
58260;SDS011;44058;52.898;6.502;2023-07-09T07:45:11;12.63;;;9.18;;
58260;SDS011;44058;52.898;6.502;2023-07-09T07:47:38;11.50;;;8.60;;
58260;SDS011;44058;52.898;6.502;2023-07-09T07:50:05;11.77;;;8.57;;
58260;SDS011;44058;52.898;6.502;2023-07-09T07:52:31;11.75;;;8.95;;
58260;SDS011;44058;52.898;6.502;2023-07-09T07:54:58;12.02;;;8.82;;
58260;SDS011;44058;52.898;6.502;2023-07-09T07:57:24;10.10;;;8.10;;
58260;SDS011;44058;52.898;6.502;2023-07-09T07:59:51;12.80;;;9.33;;
58260;SDS011;44058;52.898;6.502;2023-07-09T08:02:17;11.27;;;7.85;;
58260;SDS011;44058;52.898;6.502;2023-07-09T08:04:44;10.68;;;8.60;;
58260;SDS011;44058;52.898;6.502;2023-07-09T08:07:10;12.07;;;7.80;;
58260;SDS011;44058;52.898;6.502;2023-07-09T08:09:36;8.02;;;7.00;;
58260;SDS011;44058;52.898;6.502;2023-07-09T08:12:03;8.95;;;7.78;;
58260;SDS011;44058;52.898;6.502;2023-07-09T08:14:38;11.57;;;7.78;;
58260;SDS011;44058;52.898;6.502;2023-07-09T08:17:04;11.50;;;8.65;;
58260;SDS011;44058;52.898;6.502;2023-07-09T08:19:31;9.65;;;7.60;;
58260;SDS011;44058;52.898;6.502;2023-07-09T08:21:57;11.57;;;8.00;;
58260;SDS011;44058;52.898;6.502;2023-07-09T08:24:23;9.07;;;8.00;;
58260;SDS011;44058;52.898;6.502;2023-07-09T08:26:50;9.80;;;7.72;;
58260;SDS011;44058;52.898;6.502;2023-07-09T08:29:16;9.52;;;8.25;;
58260;SDS011;44058;52.898;6.502;2023-07-09T08:31:42;9.95;;;7.10;;
58260;SDS011;44058;52.898;6.502;2023-07-09T08:34:08;8.82;;;7.50;;
58260;SDS011;44058;52.898;6.502;2023-07-09T08:36:34;10.55;;;7.43;;
58260;SDS011;44058;52.898;6.502;2023-07-09T08:39:01;9.77;;;7.25;;
58260;SDS011;44058;52.898;6.502;2023-07-09T08:49:08;7.20;;;5.93;;
58260;SDS011;44058;52.898;6.502;2023-07-09T08:51:38;10.25;;;6.05;;
58260;SDS011;44058;52.898;6.502;2023-07-09T08:54:09;7.85;;;6.20;;
58260;SDS011;44058;52.898;6.502;2023-07-09T08:56:36;9.15;;;6.32;;
58260;SDS011;44058;52.898;6.502;2023-07-09T08:59:02;8.73;;;6.22;;
58260;SDS011;44058;52.898;6.502;2023-07-09T09:01:36;9.07;;;6.70;;
58260;SDS011;44058;52.898;6.502;2023-07-09T09:04:06;9.95;;;6.68;;
58260;SDS011;44058;52.898;6.502;2023-07-09T09:06:36;7.30;;;6.30;;
58260;SDS011;44058;52.898;6.502;2023-07-09T09:09:28;9.30;;;6.18;;
58260;SDS011;44058;52.898;6.502;2023-07-09T09:14:43;8.07;;;5.07;;
58260;SDS011;44058;52.898;6.502;2023-07-09T09:17:13;6.80;;;5.25;;
58260;SDS011;44058;52.898;6.502;2023-07-09T09:19:52;8.98;;;6.35;;
58260;SDS011;44058;52.898;6.502;2023-07-09T09:22:21;7.22;;;6.05;;
58260;SDS011;44058;52.898;6.502;2023-07-09T09:24:55;12.00;;;6.05;;
58260;SDS011;44058;52.898;6.502;2023-07-09T09:27:22;7.45;;;5.88;;
58260;SDS011;44058;52.898;6.502;2023-07-09T09:29:48;8.13;;;6.32;;
58260;SDS011;44058;52.898;6.502;2023-07-09T09:32:20;11.95;;;6.28;;
58260;SDS011;44058;52.898;6.502;2023-07-09T09:34:47;7.30;;;6.05;;
58260;SDS011;44058;52.898;6.502;2023-07-09T09:37:15;10.27;;;6.70;;
58260;SDS011;44058;52.898;6.502;2023-07-09T09:39:49;8.60;;;5.95;;
58260;SDS011;44058;52.898;6.502;2023-07-09T09:42:15;10.93;;;6.57;;
58260;SDS011;44058;52.898;6.502;2023-07-09T09:44:44;10.85;;;6.30;;
58260;SDS011;44058;52.898;6.502;2023-07-09T09:47:11;13.80;;;6.20;;
58260;SDS011;44058;52.898;6.502;2023-07-09T09:49:40;7.88;;;5.65;;
58260;SDS011;44058;52.898;6.502;2023-07-09T09:52:13;10.23;;;6.05;;
58260;SDS011;44058;52.898;6.502;2023-07-09T09:54:40;8.68;;;5.97;;
58260;SDS011;44058;52.898;6.502;2023-07-09T09:57:18;9.38;;;6.80;;
58260;SDS011;44058;52.898;6.502;2023-07-09T09:59:45;10.25;;;6.50;;
58260;SDS011;44058;52.898;6.502;2023-07-09T10:02:20;9.85;;;5.97;;
58260;SDS011;44058;52.898;6.502;2023-07-09T10:04:47;8.45;;;5.53;;
58260;SDS011;44058;52.898;6.502;2023-07-09T10:07:19;8.57;;;5.87;;
58260;SDS011;44058;52.898;6.502;2023-07-09T10:09:49;6.63;;;5.85;;
58260;SDS011;44058;52.898;6.502;2023-07-09T10:12:23;8.57;;;5.88;;
58260;SDS011;44058;52.898;6.502;2023-07-09T10:17:23;8.07;;;5.88;;
58260;SDS011;44058;52.898;6.502;2023-07-09T10:19:57;6.90;;;5.50;;
58260;SDS011;44058;52.898;6.502;2023-07-09T10:27:39;8.38;;;5.53;;
58260;SDS011;44058;52.898;6.502;2023-07-09T10:33:10;10.68;;;6.53;;
58260;SDS011;44058;52.898;6.502;2023-07-09T10:35:48;9.63;;;6.43;;
58260;SDS011;44058;52.898;6.502;2023-07-09T10:38:22;7.88;;;6.78;;
58260;SDS011;44058;52.898;6.502;2023-07-09T10:40:54;10.85;;;6.45;;
58260;SDS011;44058;52.898;6.502;2023-07-09T10:43:36;8.38;;;6.70;;
58260;SDS011;44058;52.898;6.502;2023-07-09T10:46:09;9.18;;;6.20;;
58260;SDS011;44058;52.898;6.502;2023-07-09T10:48:44;10.95;;;6.65;;
58260;SDS011;44058;52.898;6.502;2023-07-09T10:51:15;9.30;;;6.38;;
58260;SDS011;44058;52.898;6.502;2023-07-09T10:53:45;7.50;;;6.38;;
58260;SDS011;44058;52.898;6.502;2023-07-09T10:56:14;10.50;;;6.10;;
58260;SDS011;44058;52.898;6.502;2023-07-09T10:58:43;7.80;;;6.28;;
58260;SDS011;44058;52.898;6.502;2023-07-09T11:01:13;8.18;;;5.93;;
58260;SDS011;44058;52.898;6.502;2023-07-09T11:03:44;8.68;;;6.10;;
58260;SDS011;44058;52.898;6.502;2023-07-09T11:06:14;8.35;;;6.10;;
58260;SDS011;44058;52.898;6.502;2023-07-09T11:08:43;9.35;;;6.03;;
58260;SDS011;44058;52.898;6.502;2023-07-09T11:11:13;7.38;;;6.03;;
58260;SDS011;44058;52.898;6.502;2023-07-09T11:13:41;8.32;;;6.15;;
58260;SDS011;44058;52.898;6.502;2023-07-09T11:16:11;9.70;;;6.60;;
58260;SDS011;44058;52.898;6.502;2023-07-09T11:18:40;9.23;;;6.35;;
58260;SDS011;44058;52.898;6.502;2023-07-09T11:23:43;7.60;;;6.03;;
58260;SDS011;44058;52.898;6.502;2023-07-09T11:28:37;8.35;;;5.20;;
58260;SDS011;44058;52.898;6.502;2023-07-09T11:31:07;7.97;;;5.05;;
58260;SDS011;44058;52.898;6.502;2023-07-09T11:33:34;6.97;;;5.35;;
58260;SDS011;44058;52.898;6.502;2023-07-09T11:36:14;7.55;;;5.00;;
58260;SDS011;44058;52.898;6.502;2023-07-09T11:38:44;5.97;;;4.90;;
58260;SDS011;44058;52.898;6.502;2023-07-09T11:46:46;5.75;;;4.50;;
58260;SDS011;44058;52.898;6.502;2023-07-09T11:49:14;8.20;;;4.93;;
58260;SDS011;44058;52.898;6.502;2023-07-09T11:51:42;7.35;;;4.53;;
58260;SDS011;44058;52.898;6.502;2023-07-09T11:54:13;8.95;;;5.22;;
58260;SDS011;44058;52.898;6.502;2023-07-09T11:56:39;5.07;;;4.57;;
58260;SDS011;44058;52.898;6.502;2023-07-09T11:59:05;5.57;;;4.38;;
58260;SDS011;44058;52.898;6.502;2023-07-09T12:01:36;8.63;;;4.93;;
58260;SDS011;44058;52.898;6.502;2023-07-09T12:04:04;8.43;;;4.78;;
58260;SDS011;44058;52.898;6.502;2023-07-09T12:06:31;6.32;;;4.95;;
58260;SDS011;44058;52.898;6.502;2023-07-09T12:08:59;5.97;;;4.35;;
58260;SDS011;44058;52.898;6.502;2023-07-09T12:13:52;5.75;;;4.35;;
58260;SDS011;44058;52.898;6.502;2023-07-09T12:16:22;7.47;;;4.75;;
58260;SDS011;44058;52.898;6.502;2023-07-09T12:18:48;7.45;;;4.60;;
58260;SDS011;44058;52.898;6.502;2023-07-09T12:21:14;7.13;;;4.45;;
58260;SDS011;44058;52.898;6.502;2023-07-09T12:23:41;6.93;;;4.60;;
58260;SDS011;44058;52.898;6.502;2023-07-09T12:26:10;7.03;;;4.60;;
58260;SDS011;44058;52.898;6.502;2023-07-09T12:28:37;5.65;;;4.68;;
58260;SDS011;44058;52.898;6.502;2023-07-09T12:31:03;7.90;;;4.70;;
58260;SDS011;44058;52.898;6.502;2023-07-09T12:33:29;7.47;;;4.32;;
58260;SDS011;44058;52.898;6.502;2023-07-09T12:35:56;8.18;;;4.60;;
58260;SDS011;44058;52.898;6.502;2023-07-09T12:38:23;4.28;;;3.90;;
58260;SDS011;44058;52.898;6.502;2023-07-09T12:40:51;7.50;;;4.50;;
58260;SDS011;44058;52.898;6.502;2023-07-09T12:43:27;4.93;;;4.07;;
58260;SDS011;44058;52.898;6.502;2023-07-09T12:45:54;5.40;;;4.07;;
58260;SDS011;44058;52.898;6.502;2023-07-09T12:48:21;6.07;;;4.70;;
58260;SDS011;44058;52.898;6.502;2023-07-09T12:50:49;8.15;;;4.70;;
58260;SDS011;44058;52.898;6.502;2023-07-09T12:53:16;5.90;;;4.70;;
58260;SDS011;44058;52.898;6.502;2023-07-09T12:55:44;5.85;;;4.40;;
58260;SDS011;44058;52.898;6.502;2023-07-09T12:58:12;6.53;;;4.50;;
58260;SDS011;44058;52.898;6.502;2023-07-09T13:00:40;6.97;;;4.20;;
58260;SDS011;44058;52.898;6.502;2023-07-09T13:03:12;6.30;;;4.43;;
58260;SDS011;44058;52.898;6.502;2023-07-09T13:05:39;6.53;;;4.45;;
58260;SDS011;44058;52.898;6.502;2023-07-09T13:08:16;6.60;;;4.75;;
58260;SDS011;44058;52.898;6.502;2023-07-09T13:10:44;4.97;;;4.47;;
58260;SDS011;44058;52.898;6.502;2023-07-09T13:13:11;5.15;;;3.97;;
58260;SDS011;44058;52.898;6.502;2023-07-09T13:15:42;5.45;;;4.45;;
58260;SDS011;44058;52.898;6.502;2023-07-09T13:18:10;7.90;;;4.72;;
58260;SDS011;44058;52.898;6.502;2023-07-09T13:23:15;7.60;;;4.40;;
58260;SDS011;44058;52.898;6.502;2023-07-09T13:25:42;7.68;;;4.45;;
58260;SDS011;44058;52.898;6.502;2023-07-09T13:28:19;6.07;;;4.60;;
58260;SDS011;44058;52.898;6.502;2023-07-09T13:30:46;12.17;;;4.40;;
58260;SDS011;44058;52.898;6.502;2023-07-09T13:33:12;10.07;;;4.38;;
58260;SDS011;44058;52.898;6.502;2023-07-09T13:35:40;6.82;;;5.22;;
58260;SDS011;44058;52.898;6.502;2023-07-09T13:38:11;7.65;;;4.78;;
58260;SDS011;44058;52.898;6.502;2023-07-09T13:40:38;6.72;;;4.20;;
58260;SDS011;44058;52.898;6.502;2023-07-09T13:43:09;5.82;;;4.38;;
58260;SDS011;44058;52.898;6.502;2023-07-09T13:45:36;8.50;;;4.90;;
58260;SDS011;44058;52.898;6.502;2023-07-09T13:48:04;7.15;;;5.10;;
58260;SDS011;44058;52.898;6.502;2023-07-09T13:50:31;7.40;;;5.07;;
58260;SDS011;44058;52.898;6.502;2023-07-09T13:52:57;7.22;;;4.97;;
58260;SDS011;44058;52.898;6.502;2023-07-09T13:55:23;5.45;;;4.47;;
58260;SDS011;44058;52.898;6.502;2023-07-09T13:57:50;5.47;;;4.53;;
58260;SDS011;44058;52.898;6.502;2023-07-09T14:00:16;7.38;;;4.85;;
58260;SDS011;44058;52.898;6.502;2023-07-09T14:02:43;7.93;;;5.15;;
58260;SDS011;44058;52.898;6.502;2023-07-09T14:05:10;5.35;;;4.85;;
58260;SDS011;44058;52.898;6.502;2023-07-09T14:07:38;6.45;;;4.68;;
58260;SDS011;44058;52.898;6.502;2023-07-09T14:10:05;6.60;;;4.68;;
58260;SDS011;44058;52.898;6.502;2023-07-09T14:12:41;6.90;;;5.03;;
58260;SDS011;44058;52.898;6.502;2023-07-09T14:15:15;9.77;;;4.95;;
58260;SDS011;44058;52.898;6.502;2023-07-09T14:17:42;4.88;;;4.30;;
58260;SDS011;44058;52.898;6.502;2023-07-09T14:20:15;5.13;;;4.38;;
58260;SDS011;44058;52.898;6.502;2023-07-09T14:22:43;5.45;;;4.10;;
58260;SDS011;44058;52.898;6.502;2023-07-09T14:25:18;6.72;;;4.25;;
58260;SDS011;44058;52.898;6.502;2023-07-09T14:27:44;5.90;;;4.10;;
58260;SDS011;44058;52.898;6.502;2023-07-09T14:30:15;4.72;;;4.05;;
58260;SDS011;44058;52.898;6.502;2023-07-09T14:32:41;5.35;;;4.38;;
58260;SDS011;44058;52.898;6.502;2023-07-09T14:35:18;6.68;;;4.60;;
58260;SDS011;44058;52.898;6.502;2023-07-09T14:37:45;5.50;;;4.50;;
58260;SDS011;44058;52.898;6.502;2023-07-09T14:40:12;6.35;;;4.30;;
58260;SDS011;44058;52.898;6.502;2023-07-09T14:42:39;6.97;;;4.70;;
58260;SDS011;44058;52.898;6.502;2023-07-09T14:45:06;5.13;;;4.63;;
58260;SDS011;44058;52.898;6.502;2023-07-09T14:47:41;4.88;;;4.18;;
58260;SDS011;44058;52.898;6.502;2023-07-09T14:50:07;6.85;;;4.57;;
58260;SDS011;44058;52.898;6.502;2023-07-09T14:52:34;5.93;;;4.60;;
58260;SDS011;44058;52.898;6.502;2023-07-09T14:55:01;7.80;;;4.80;;
58260;SDS011;44058;52.898;6.502;2023-07-09T14:57:27;8.68;;;5.05;;
58260;SDS011;44058;52.898;6.502;2023-07-09T14:59:55;7.18;;;5.10;;
58260;SDS011;44058;52.898;6.502;2023-07-09T15:02:25;7.65;;;5.05;;
58260;SDS011;44058;52.898;6.502;2023-07-09T15:04:56;10.02;;;5.28;;
58260;SDS011;44058;52.898;6.502;2023-07-09T15:07:22;7.80;;;4.57;;
58260;SDS011;44058;52.898;6.502;2023-07-09T15:09:54;13.65;;;5.35;;
58260;SDS011;44058;52.898;6.502;2023-07-09T15:12:22;14.10;;;5.60;;
58260;SDS011;44058;52.898;6.502;2023-07-09T15:14:51;40.80;;;6.60;;
58260;SDS011;44058;52.898;6.502;2023-07-09T15:17:17;20.20;;;6.03;;
58260;SDS011;44058;52.898;6.502;2023-07-09T15:19:43;11.18;;;4.93;;
58260;SDS011;44058;52.898;6.502;2023-07-09T15:22:29;8.23;;;4.32;;
58260;SDS011;44058;52.898;6.502;2023-07-09T15:24:56;8.30;;;4.82;;
58260;SDS011;44058;52.898;6.502;2023-07-09T15:27:22;10.52;;;5.22;;